Home > Products > Valid Products > TAF

000
FTUS43 KLSX 040520
TAFSTL
TAF
KSTL 040520Z 0406/0512 23010KT P6SM BKN080
     FM040900 24012KT P6SM BKN060
      TEMPO 0409/0412 6SM -SHRA
     FM041300 27013G22KT P6SM BKN060
     FM041800 33017G26KT P6SM SCT040
     FM050100 33009KT P6SM SKC=



000
FTUS43 KLSX 040520
TAFUIN
TAF
KUIN 040520Z 0406/0506 23010KT P6SM BKN060
      TEMPO 0406/0409 6SM -SHRA
     FM040900 26011KT P6SM BKN060
     FM041200 33013G22KT P6SM SCT060
     FM041800 34017G26KT P6SM SCT040
     FM050100 33009KT P6SM SKC=



000
FTUS43 KLSX 040520
TAFCOU
TAF
KCOU 040520Z 0406/0506 23010KT P6SM SCT100
     FM040900 25012KT P6SM BKN100
     FM041300 30013G22KT P6SM SCT100
     FM041800 34017G26KT P6SM SKC
     FM050100 32008KT P6SM SKC=



000
FTUS43 KLSX 040520
TAFSUS
TAF
KSUS 040520Z 0406/0506 23009KT P6SM BKN080
     FM040900 24011KT P6SM BKN060
      TEMPO 0409/0412 6SM -SHRA
     FM041300 27013G22KT P6SM BKN060
     FM041800 33017G26KT P6SM SCT040
     FM050100 33008KT P6SM SKC=



000
FTUS43 KLSX 040315 AAA
TAFSTL
TAF AMD
KSTL 040315Z 0403/0506 23007KT P6SM SCT100
     FM040900 23011KT P6SM VCSH BKN060
     FM041200 28012KT P6SM BKN060
     FM041500 33016G25KT P6SM SCT050
     FM050100 33009KT P6SM SKC=



000
FTUS43 KLSX 040218 AAA
TAFCOU
TAF AMD
KCOU 040218Z 0402/0424 23006KT P6SM SCT120
     FM040800 25011KT P6SM BKN080
     FM041100 29012G18KT P6SM SCT100
     FM041400 34016G25KT P6SM SKC=



000
FTUS43 KLSX 040214 AAA
TAFUIN
TAF AMD
KUIN 040214Z 0402/0424 23007KT P6SM BKN080
     FM040600 24012KT P6SM VCSH BKN060
     FM040900 29012G18KT P6SM BKN060
     FM041400 34016G25KT P6SM SKC=



000
FTUS43 KLSX 032340
TAFUIN
TAF
KUIN 032340Z 0400/0424 26007KT P6SM SCT250
     FM040600 24013KT P6SM VCSH BKN070
     FM040900 29012G18KT P6SM SCT080
     FM041400 34016G24KT P6SM SKC=



000
FTUS43 KLSX 032340
TAFCOU
TAF
KCOU 032340Z 0400/0424 28007KT P6SM SCT080
     FM040800 25012KT P6SM BKN060
     FM041000 29012G18KT P6SM SCT070
     FM041400 34016G24KT P6SM SKC=



000
FTUS43 KLSX 032340
TAFSUS
TAF
KSUS 032340Z 0400/0424 28005KT P6SM SCT100
     FM040200 24005KT P6SM SKC
     FM040800 24011KT P6SM VCSH BKN060
     FM041200 29013G21KT P6SM SCT080
     FM041500 33016G25KT P6SM FEW060=



000
FTUS43 KLSX 032340
TAFSTL
TAF
KSTL 032340Z 0400/0506 28006KT P6SM SCT100
     FM040200 24006KT P6SM SKC
     FM040800 24012KT P6SM VCSH BKN060
     FM041200 29013G21KT P6SM SCT080
     FM041500 33016G25KT P6SM FEW060
     FM050100 33009KT P6SM SKC=



000
FTUS43 KLSX 032340
TAFSTL
TAF
KSTL 032340Z 0400/0506 28006KT P6SM SCT100
     FM040200 24006KT P6SM SKC
     FM040800 24012KT P6SM VCSH BKN060
     FM041200 29013G21KT P6SM SCT080
     FM041500 33016G25KT P6SM FEW060
     FM050100 33009KT P6SM SKC=



000
FTUS43 KLSX 032340
TAFCOU
TAF
KCOU 032340Z 0400/0424 28007KT P6SM SCT080
     FM040800 25012KT P6SM BKN060
     FM041000 29012G18KT P6SM SCT070
     FM041400 34016G24KT P6SM SKC=



000
FTUS43 KLSX 032340
TAFSUS
TAF
KSUS 032340Z 0400/0424 28005KT P6SM SCT100
     FM040200 24005KT P6SM SKC
     FM040800 24011KT P6SM VCSH BKN060
     FM041200 29013G21KT P6SM SCT080
     FM041500 33016G25KT P6SM FEW060=



000
FTUS43 KLSX 032340
TAFUIN
TAF
KUIN 032340Z 0400/0424 26007KT P6SM SCT250
     FM040600 24013KT P6SM VCSH BKN070
     FM040900 29012G18KT P6SM SCT080
     FM041400 34016G24KT P6SM SKC=



000
FTUS43 KLSX 032050 AAA
TAFSTL
TAF AMD
KSTL 032050Z 0321/0424 31008KT P6SM BKN060
     FM040100 24006KT P6SM FEW250
     FM040800 25013KT P6SM VCSH BKN060
     FM041100 29013G20KT P6SM SCT080
     FM041400 33015G23KT P6SM FEW060=



000
FTUS43 KLSX 031725
TAFSTL
TAF
KSTL 031725Z 0318/0424 32009KT P6SM VCSH BKN045
     FM032100 30007KT P6SM SCT050
     FM040100 24006KT P6SM FEW250
     FM040800 25013KT P6SM VCSH BKN060
     FM041100 29013G20KT P6SM SCT080
     FM041400 33015G23KT P6SM FEW060=



000
FTUS43 KLSX 031725
TAFSUS
TAF
KSUS 031725Z 0318/0418 32007KT P6SM VCSH BKN045
     FM032100 30007KT P6SM SCT050
     FM040100 23004KT P6SM FEW250
     FM040800 25010KT P6SM VCSH BKN060
     FM041100 29012G18KT P6SM SCT080
     FM041500 33015G23KT P6SM FEW060=



000
FTUS43 KLSX 031725
TAFCOU
TAF
KCOU 031725Z 0318/0418 29008KT P6SM SCT060
     FM040000 24007KT P6SM FEW250
     FM040800 25012KT P6SM BKN060
     FM041000 29012G18KT P6SM SCT070
     FM041400 34015G23KT P6SM FEW250=



000
FTUS43 KLSX 031725
TAFUIN
TAF
KUIN 031725Z 0318/0418 29008KT P6SM SCT060
     FM040000 24007KT P6SM SCT250
     FM040500 24013KT P6SM VCSH BKN070
     FM040900 29012G18KT P6SM SCT250
     FM041400 34015G23KT P6SM FEW250=



000
FTUS43 KLSX 031725
TAFSTL
TAF
KSTL 031725Z 0318/0424 32009KT P6SM VCSH BKN045
     FM032100 30007KT P6SM SCT050
     FM040100 24006KT P6SM FEW250
     FM040800 25013KT P6SM VCSH BKN060
     FM041100 29013G20KT P6SM SCT080
     FM041400 33015G23KT P6SM FEW060=



000
FTUS43 KLSX 031725
TAFCOU
TAF
KCOU 031725Z 0318/0418 29008KT P6SM SCT060
     FM040000 24007KT P6SM FEW250
     FM040800 25012KT P6SM BKN060
     FM041000 29012G18KT P6SM SCT070
     FM041400 34015G23KT P6SM FEW250=



000
FTUS43 KLSX 031725
TAFSUS
TAF
KSUS 031725Z 0318/0418 32007KT P6SM VCSH BKN045
     FM032100 30007KT P6SM SCT050
     FM040100 23004KT P6SM FEW250
     FM040800 25010KT P6SM VCSH BKN060
     FM041100 29012G18KT P6SM SCT080
     FM041500 33015G23KT P6SM FEW060=



000
FTUS43 KLSX 031725
TAFUIN
TAF
KUIN 031725Z 0318/0418 29008KT P6SM SCT060
     FM040000 24007KT P6SM SCT250
     FM040500 24013KT P6SM VCSH BKN070
     FM040900 29012G18KT P6SM SCT250
     FM041400 34015G23KT P6SM FEW250=



000
FTUS43 KLSX 031514 AAA
TAFSTL
TAF AMD
KSTL 031514Z 0315/0418 31008KT P6SM BKN040
     FM040200 24010KT P6SM SCT050
     FM041400 32012KT P6SM SCT250=



000
FTUS43 KLSX 031426 AAA
TAFCOU
TAF AMD
KCOU 031426Z 0314/0412 VRB03KT 2SM BR BKN002
     FM031500 31007KT P6SM SCT060
     FM040300 23006KT P6SM SCT200
     FM041000 26008KT P6SM SCT070 WS010/28040KT=



000
FTUS43 KLSX 031203 AAA
TAFSUS
TAF AMD
KSUS 031203Z 0312/0412 30004KT P6SM BKN060
     FM040200 24004KT P6SM SCT060=



000
FTUS43 KLSX 031203 AAA
TAFSUS
TAF AMD
KSUS 031203Z 0312/0412 30004KT P6SM BKN060
     FM040200 24004KT P6SM SCT060=



000
FTUS43 KLSX 031130
TAFSUS
TAF
KSUS 031130Z 0312/0412 VRB03KT P6SM BKN008 BKN035
     FM031400 30004KT P6SM BKN060
     FM040200 24004KT P6SM SCT060=



000
FTUS43 KLSX 031130
TAFUIN
TAF
KUIN 031130Z 0312/0412 30005KT P6SM SCT070
     FM040000 25006KT P6SM SCT060
     FM040800 27010KT P6SM VCSH BKN060 WS010/29040KT
     FM041000 29010KT P6SM SCT250=



000
FTUS43 KLSX 031130
TAFSTL
TAF
KSTL 031130Z 0312/0418 30005KT P6SM BKN060
     FM040200 24010KT P6SM SCT060
     FM041400 32012KT P6SM SCT250=



000
FTUS43 KLSX 031130
TAFCOU
TAF
KCOU 031130Z 0312/0412 31004KT 1/4SM FG OVC003
     FM031400 VRB03KT 5SM BR BKN040
     FM031500 31007KT P6SM SCT060
     FM040300 23006KT P6SM SCT200
     FM041000 26008KT P6SM SCT070 WS010/28040KT=



000
FTUS43 KLSX 031130
TAFSUS
TAF
KSUS 031130Z 0312/0412 VRB03KT P6SM BKN008 BKN035
     FM031400 30004KT P6SM BKN060
     FM040200 24004KT P6SM SCT060=



000
FTUS43 KLSX 031130
TAFCOU
TAF
KCOU 031130Z 0312/0412 31004KT 1/4SM FG OVC003
     FM031400 VRB03KT 5SM BR BKN040
     FM031500 31007KT P6SM SCT060
     FM040300 23006KT P6SM SCT200
     FM041000 26008KT P6SM SCT070 WS010/28040KT=



000
FTUS43 KLSX 031130
TAFUIN
TAF
KUIN 031130Z 0312/0412 30005KT P6SM SCT070
     FM040000 25006KT P6SM SCT060
     FM040800 27010KT P6SM VCSH BKN060 WS010/29040KT
     FM041000 29010KT P6SM SCT250=



000
FTUS43 KLSX 031130
TAFSTL
TAF
KSTL 031130Z 0312/0418 30005KT P6SM BKN060
     FM040200 24010KT P6SM SCT060
     FM041400 32012KT P6SM SCT250=



000
FTUS43 KLSX 031104 AAB
TAFSTL
TAF AMD
KSTL 031104Z 0311/0412 29004KT P6SM BKN007 BKN060
     FM031300 31007KT P6SM BKN035
     FM040100 25006KT P6SM SCT050
     FM040900 25011KT P6SM BKN120=



000
FTUS43 KLSX 031104 AAB
TAFSTL
TAF AMD
KSTL 031104Z 0311/0412 29004KT P6SM BKN007 BKN060
     FM031300 31007KT P6SM BKN035
     FM040100 25006KT P6SM SCT050
     FM040900 25011KT P6SM BKN120=



000
FTUS43 KLSX 031103 AAB
TAFSUS
TAF AMD
KSUS 031103Z 0311/0406 28004KT P6SM BKN008 BKN035
     FM031300 31007KT P6SM BKN035
     FM040100 25005KT P6SM SCT050=



000
FTUS43 KLSX 031103 AAB
TAFSUS
TAF AMD
KSUS 031103Z 0311/0406 28004KT P6SM BKN008 BKN035
     FM031300 31007KT P6SM BKN035
     FM040100 25005KT P6SM SCT050=



000
FTUS43 KLSX 030903 AAA
TAFUIN
TAF AMD
KUIN 030903Z 0309/0406 VRB04KT P6SM SCT050 BKN090
     FM031400 30007KT P6SM SCT060
     FM040100 25007KT P6SM SCT120=



000
FTUS43 KLSX 030901 AAA
TAFSUS
TAF AMD
KSUS 030901Z 0309/0406 VRB03KT P6SM SCT009 BKN060
      TEMPO 0309/0311 BKN010
     FM031400 31007KT P6SM BKN035
     FM040100 25005KT P6SM SCT050=



000
FTUS43 KLSX 030901 AAA
TAFSUS
TAF AMD
KSUS 030901Z 0309/0406 VRB03KT P6SM SCT009 BKN060
      TEMPO 0309/0311 BKN010
     FM031400 31007KT P6SM BKN035
     FM040100 25005KT P6SM SCT050=



000
FTUS43 KLSX 030900 AAA
TAFSTL
TAF AMD
KSTL 030900Z 0309/0412 VRB04KT P6SM SCT009 BKN060
     FM031400 31007KT P6SM BKN035
     FM040100 25006KT P6SM SCT050
     FM040900 25011KT P6SM BKN120=



000
FTUS43 KLSX 030900 AAA
TAFSTL
TAF AMD
KSTL 030900Z 0309/0412 VRB04KT P6SM SCT009 BKN060
     FM031400 31007KT P6SM BKN035
     FM040100 25006KT P6SM SCT050
     FM040900 25011KT P6SM BKN120=



000
FTUS43 KLSX 030520
TAFUIN
TAF
KUIN 030520Z 0306/0406 VRB04KT P6SM SCT050 BKN090
     FM030900 VRB04KT 2SM BR BKN005
     FM031400 30007KT P6SM SCT030
     FM040100 25007KT P6SM SCT120=



000
FTUS43 KLSX 030520
TAFUIN
TAF
KUIN 030520Z 0306/0406 VRB04KT P6SM SCT050 BKN090
     FM030900 VRB04KT 2SM BR BKN005
     FM031400 30007KT P6SM SCT030
     FM040100 25007KT P6SM SCT120=



000
FTUS43 KLSX 030520
TAFSTL
TAF
KSTL 030520Z 0306/0412 VRB04KT P6SM SCT015 BKN040
      TEMPO 0306/0308 BKN015
     FM030900 VRB04KT 4SM BR BKN005
     FM031400 31007KT P6SM BKN035
     FM040100 25006KT P6SM SCT050
     FM040900 25011KT P6SM BKN120=



000
FTUS43 KLSX 030520
TAFSUS
TAF
KSUS 030520Z 0306/0406 VRB03KT P6SM SCT015 BKN040
      TEMPO 0306/0308 BKN015
     FM030900 VRB03KT 2SM BR BKN005
     FM031400 31007KT P6SM BKN035
     FM040100 25005KT P6SM SCT050=



000
FTUS43 KLSX 030520
TAFCOU
TAF
KCOU 030520Z 0306/0406 VRB04KT 1/4SM FG VV001
     FM031400 30005KT 5SM BR BKN010
     FM031600 30008KT P6SM BKN035
     FM040100 25006KT P6SM SCT050=



000
FTUS43 KLSX 030520
TAFSUS
TAF
KSUS 030520Z 0306/0406 VRB03KT P6SM SCT015 BKN040
      TEMPO 0306/0308 BKN015
     FM030900 VRB03KT 2SM BR BKN005
     FM031400 31007KT P6SM BKN035
     FM040100 25005KT P6SM SCT050=



000
FTUS43 KLSX 030520
TAFCOU
TAF
KCOU 030520Z 0306/0406 VRB04KT 1/4SM FG VV001
     FM031400 30005KT 5SM BR BKN010
     FM031600 30008KT P6SM BKN035
     FM040100 25006KT P6SM SCT050=



000
FTUS43 KLSX 030520
TAFSTL
TAF
KSTL 030520Z 0306/0412 VRB04KT P6SM SCT015 BKN040
      TEMPO 0306/0308 BKN015
     FM030900 VRB04KT 4SM BR BKN005
     FM031400 31007KT P6SM BKN035
     FM040100 25006KT P6SM SCT050
     FM040900 25011KT P6SM BKN120=



000
FTUS43 KLSX 030334 AAE
TAFCOU
TAF AMD
KCOU 030334Z 0304/0324 33006KT 1/2SM FG VV002
     FM030600 VRB04KT 1/4SM FG VV001
     FM031400 VRB04KT 4SM BR SCT005
     FM031600 32007KT P6SM BKN035=



000
FTUS43 KLSX 030323 AAD
TAFCOU
TAF AMD
KCOU 030323Z 0303/0324 33006KT 2SM BR BKN002
     FM030600 VRB04KT 2SM BR BKN002
      TEMPO 0309/0313 1/2SM FG VV001
     FM031400 VRB04KT 5SM BR SCT005
     FM031600 32007KT P6SM BKN035=



000
FTUS43 KLSX 030315 AAC
TAFCOU
TAF AMD
KCOU 030315Z 0303/0324 32006KT 5SM BR BKN003
     FM030500 VRB04KT 3SM BR SCT002
      TEMPO 0309/0313 1SM BR BKN002
     FM031400 VRB04KT P6SM SCT010
     FM031600 32007KT P6SM BKN040=



000
FTUS43 KLSX 030310 AAA
TAFSUS
TAF AMD
KSUS 030310Z 0303/0324 VRB04KT P6SM SCT015 BKN030
      TEMPO 0303/0305 BKN015
     FM030500 VRB03KT P6SM BKN040
      TEMPO 0309/0313 5SM BR
     FM031500 33007KT P6SM BKN040=



000
FTUS43 KLSX 030308 AAA
TAFSTL
TAF AMD
KSTL 030308Z 0303/0406 VRB04KT P6SM SCT015 BKN030
      TEMPO 0303/0305 BKN015
     FM030500 VRB04KT P6SM BKN040
     FM031500 33007KT P6SM BKN040
     FM040100 27006KT P6SM SCT050=



000
FTUS43 KLSX 030225 AAB
TAFCOU
TAF AMD
KCOU 030225Z 0302/0324 VRB04KT P6SM SCT004 BKN070
      TEMPO 0302/0304 BKN004
     FM030500 VRB04KT P6SM SCT070
      TEMPO 0309/0313 5SM BR
     FM031600 32007KT P6SM BKN040=



000
FTUS43 KLSX 030100 AAA
TAFCOU
TAF AMD
KCOU 030100Z 0301/0324 32006KT P6SM VCSH SCT015 OVC025
      TEMPO 0301/0302 4SM -SHRA BR BKN015
     FM030300 VRB04KT P6SM BKN040
      TEMPO 0309/0313 5SM BR
     FM031600 32007KT P6SM BKN040=



000
FTUS43 KLSX 022339
TAFSTL
TAF
KSTL 022339Z 0300/0406 32007KT P6SM VCSH SCT015 BKN030
     FM030300 VRB04KT P6SM BKN040
     FM031500 33007KT P6SM BKN040
     FM040100 27006KT P6SM SCT050=



000
FTUS43 KLSX 022339
TAFUIN
TAF
KUIN 022339Z 0300/0324 01006KT P6SM VCSH OVC035
     FM030200 VRB04KT P6SM BKN040
     FM030900 VRB04KT 5SM BR SCT040
     FM031500 32007KT P6SM SCT040=



000
FTUS43 KLSX 022339
TAFSUS
TAF
KSUS 022339Z 0300/0324 32006KT P6SM VCSH SCT015 BKN030
     FM030300 VRB03KT P6SM BKN040
      TEMPO 0309/0313 5SM BR
     FM031500 33007KT P6SM BKN040=



000
FTUS43 KLSX 022339
TAFCOU
TAF
KCOU 022339Z 0300/0324 29006KT P6SM VCSH SCT015 OVC025
      TEMPO 0300/0302 BKN015
     FM030300 VRB04KT P6SM BKN040
      TEMPO 0309/0313 5SM BR
     FM031600 32007KT P6SM BKN040=



000
FTUS43 KLSX 022258 AAC
TAFSTL
TAF AMD
KSTL 022258Z 0223/0324 31007KT P6SM VCSH BKN020 OVC030
     FM030200 32005KT P6SM BKN040=



000
FTUS43 KLSX 022055 AAB
TAFSUS
TAF AMD
KSUS 022055Z 0221/0318 32007KT P6SM VCSH OVC035
      TEMPO 0221/0222 OVC030
     FM030200 VRB03KT P6SM BKN040
     FM031500 33005KT P6SM BKN040=



000
FTUS43 KLSX 022055 AAB
TAFSTL
TAF AMD
KSTL 022055Z 0221/0324 31007KT P6SM VCSH OVC035
      TEMPO 0221/0223 BKN025
     FM030200 32005KT P6SM BKN040=



000
FTUS43 KLSX 022053 AAA
TAFCOU
TAF AMD
KCOU 022053Z 0221/0318 33005KT P6SM VCSH OVC025
     FM022200 33006KT P6SM OVC035
     FM030300 VRB04KT P6SM BKN050=



000
FTUS43 KLSX 022052 AAA
TAFUIN
TAF AMD
KUIN 022052Z 0221/0318 36007KT P6SM VCSH OVC025
     FM022200 36008KT P6SM VCSH OVC035
     FM030200 33005KT P6SM BKN040=



000
FTUS43 KLSX 021836 AAA
TAFSUS
TAF AMD
KSUS 021836Z 0219/0318 32007KT P6SM VCSH OVC035
      TEMPO 0219/0221 OVC030
     FM030200 VRB03KT P6SM BKN040
     FM031500 33005KT P6SM BKN040=



000
FTUS43 KLSX 021835 AAA
TAFSTL
TAF AMD
KSTL 021835Z 0219/0324 31007KT P6SM VCSH OVC035
      TEMPO 0219/0221 BKN025
     FM030200 32005KT P6SM BKN040=



000
FTUS43 KLSX 021720
TAFUIN
TAF
KUIN 021720Z 0218/0318 36007KT P6SM VCSH OVC025
     FM022100 36008KT P6SM VCSH OVC035
     FM030200 33005KT P6SM BKN040=



000
FTUS43 KLSX 021720
TAFSTL
TAF
KSTL 021720Z 0218/0324 31007KT P6SM VCSH OVC035
     FM030200 32005KT P6SM BKN040=



000
FTUS43 KLSX 021720
TAFSUS
TAF
KSUS 021720Z 0218/0318 32007KT P6SM VCSH OVC035
      TEMPO 0218/0219 OVC030
     FM030200 VRB03KT P6SM BKN040
     FM031500 33005KT P6SM BKN040=



000
FTUS43 KLSX 021720
TAFCOU
TAF
KCOU 021720Z 0218/0318 33005KT P6SM VCSH OVC025
     FM022100 33006KT P6SM OVC035
     FM030300 VRB04KT P6SM BKN050=



000
FTUS43 KLSX 021419 AAA
TAFSUS
TAF AMD
KSUS 021419Z 0214/0312 31004KT P6SM OVC025
     FM021800 32008KT P6SM VCSH OVC035
     FM030200 VRB03KT P6SM SCT040=



000
FTUS43 KLSX 021418 AAA
TAFSTL
TAF AMD
KSTL 021418Z 0214/0318 31004KT P6SM OVC025
     FM021800 31007KT P6SM VCSH OVC035
     FM030200 32004KT P6SM SCT040=



000
FTUS43 KLSX 021136
TAFUIN
TAF
KUIN 021136Z 0212/0312 34007KT P6SM OVC007
      TEMPO 0212/0214 SCT007 OVC015
     FM021400 36007KT P6SM OVC015
     FM021800 36007KT P6SM VCSH OVC025
     FM022100 36008KT P6SM VCSH OVC035
     FM030200 33004KT P6SM SCT040=



000
FTUS43 KLSX 021136
TAFSUS
TAF
KSUS 021136Z 0212/0312 32005KT P6SM OVC045
      TEMPO 0212/0214 BKN015
     FM021400 31004KT P6SM OVC025
     FM021800 32008KT P6SM VCSH OVC035
     FM030200 VRB03KT P6SM SCT040=



000
FTUS43 KLSX 021136
TAFCOU
TAF
KCOU 021136Z 0212/0312 35010KT P6SM OVC015
      TEMPO 0212/0215 -SHRA
     FM021500 32004KT P6SM VCSH OVC025
     FM022100 33006KT P6SM VCSH OVC035
     FM030300 VRB03KT P6SM SCT250=



000
FTUS43 KLSX 021136
TAFSTL
TAF
KSTL 021136Z 0212/0318 33006KT P6SM OVC050
     FM021500 31004KT P6SM OVC025
     FM021800 31007KT P6SM VCSH OVC035
     FM030200 32004KT P6SM SCT040=



000
FTUS43 KLSX 021016 AAB
TAFSTL
TAF AMD
KSTL 021016Z 0210/0312 34009KT P6SM -RA SCT015 BKN025
     FM021200 31008KT P6SM VCSH BKN015 OVC040
     FM021800 32008KT P6SM VCSH BKN025 OVC040
     FM030000 32006KT P6SM BKN035=



000
FTUS43 KLSX 021010 AAB
TAFSUS
TAF AMD
KSUS 021010Z 0210/0306 32009KT P6SM -RA SCT025 OVC090
     FM021200 31008KT P6SM VCSH BKN015 OVC040
     FM021800 32008KT P6SM VCSH BKN025 OVC040
     FM030000 32005KT P6SM BKN035=



000
FTUS43 KLSX 020902 AAB
TAFUIN
TAF AMD
KUIN 020902Z 0209/0306 31007KT 6SM BR OVC005
     FM021500 35008KT P6SM VCSH SCT008 OVC015
     FM030000 33005KT P6SM BKN030=



000
FTUS43 KLSX 020902 AAB
TAFUIN
TAF AMD
KUIN 020902Z 0209/0306 31007KT 6SM BR OVC005
     FM021500 35008KT P6SM VCSH SCT008 OVC015
     FM030000 33005KT P6SM BKN030=



000
FTUS43 KLSX 020900 AAA
TAFCOU
TAF AMD
KCOU 020900Z 0209/0306 32007KT P6SM SCT020 OVC120
     FM021500 32007KT P6SM OVC015
     FM030000 32006KT P6SM BKN035=



000
FTUS43 KLSX 020857 AAA
TAFSUS
TAF AMD
KSUS 020857Z 0209/0306 32009KT P6SM SCT015 SCT025
     FM021200 31008KT P6SM VCSH BKN015 OVC040
     FM021800 32008KT P6SM VCSH BKN025 OVC040
     FM030000 32005KT P6SM BKN035=



000
FTUS43 KLSX 020856 AAA
TAFSTL
TAF AMD
KSTL 020856Z 0209/0312 32009KT P6SM SCT015 BKN025
     FM021200 31008KT P6SM VCSH BKN015 OVC040
     FM021800 32008KT P6SM VCSH BKN025 OVC040
     FM030000 32006KT P6SM BKN035=



000
FTUS43 KLSX 020721 AAA
TAFUIN
TAF AMD
KUIN 020721Z 0207/0306 32007KT P6SM BKN006 OVC015
     FM020900 34007KT 5SM BR OVC006
     FM021500 35008KT P6SM VCSH SCT008 OVC015
     FM030000 33005KT P6SM BKN030=



000
FTUS43 KLSX 020721 AAA
TAFUIN
TAF AMD
KUIN 020721Z 0207/0306 32007KT P6SM BKN006 OVC015
     FM020900 34007KT 5SM BR OVC006
     FM021500 35008KT P6SM VCSH SCT008 OVC015
     FM030000 33005KT P6SM BKN030=



000
FTUS43 KLSX 020520
TAFCOU
TAF
KCOU 020520Z 0206/0306 32007KT P6SM OVC020
     FM021000 32007KT 5SM BR VCSH OVC008
     FM021500 32007KT P6SM OVC015
     FM030000 32006KT P6SM BKN035=



000
FTUS43 KLSX 020520
TAFSUS
TAF
KSUS 020520Z 0206/0306 32009KT P6SM BKN030
      TEMPO 0206/0207 SCT030
     FM020900 31007KT 5SM BR BKN008 OVC015
     FM021600 31008KT P6SM VCSH BKN015 OVC040
     FM030000 32005KT P6SM BKN035=



000
FTUS43 KLSX 020520
TAFUIN
TAF
KUIN 020520Z 0206/0306 32007KT P6SM SCT008 OVC015
      TEMPO 0206/0209 BKN008
     FM020900 34007KT 5SM BR OVC006
     FM021500 35008KT P6SM VCSH SCT008 OVC015
     FM030000 33005KT P6SM BKN030=



000
FTUS43 KLSX 020520
TAFUIN
TAF
KUIN 020520Z 0206/0306 32007KT P6SM SCT008 OVC015
      TEMPO 0206/0209 BKN008
     FM020900 34007KT 5SM BR OVC006
     FM021500 35008KT P6SM VCSH SCT008 OVC015
     FM030000 33005KT P6SM BKN030=



000
FTUS43 KLSX 020520
TAFSUS
TAF
KSUS 020520Z 0206/0306 32009KT P6SM BKN030
      TEMPO 0206/0207 SCT030
     FM020900 31007KT 5SM BR BKN008 OVC015
     FM021600 31008KT P6SM VCSH BKN015 OVC040
     FM030000 32005KT P6SM BKN035=



000
FTUS43 KLSX 020520
TAFCOU
TAF
KCOU 020520Z 0206/0306 32007KT P6SM OVC020
     FM021000 32007KT 5SM BR VCSH OVC008
     FM021500 32007KT P6SM OVC015
     FM030000 32006KT P6SM BKN035=



000
FTUS43 KLSX 020520
TAFSTL
TAF
KSTL 020520Z 0206/0312 32009KT P6SM BKN030
      TEMPO 0206/0207 SCT030
     FM020900 31008KT 6SM BR BKN008 OVC015
     FM021600 31008KT P6SM VCSH BKN015 OVC040
     FM030000 32006KT P6SM BKN035=



000
FTUS43 KLSX 020520
TAFSTL
TAF
KSTL 020520Z 0206/0312 32009KT P6SM BKN030
      TEMPO 0206/0207 SCT030
     FM020900 31008KT 6SM BR BKN008 OVC015
     FM021600 31008KT P6SM VCSH BKN015 OVC040
     FM030000 32006KT P6SM BKN035=



000
FTUS43 KLSX 020403 AAB
TAFUIN
TAF AMD
KUIN 020403Z 0204/0224 32009KT P6SM VCSH SCT010 OVC025
      TEMPO 0204/0206 BKN010
     FM020600 33008KT 5SM BR OVC006
     FM021500 36008KT 6SM BR SCT008 OVC015
     FM022100 36007KT P6SM BKN025=



000
FTUS43 KLSX 020303 AAA
TAFSTL
TAF AMD
KSTL 020303Z 0203/0306 30009KT P6SM SCT040
     FM020600 30008KT P6SM BKN030
     FM020900 30008KT 6SM BR BKN008 OVC015
     FM021600 31008KT P6SM VCSH BKN015 OVC040
     FM030000 32006KT P6SM BKN030=



000
FTUS43 KLSX 020204 AAA
TAFCOU
TAF AMD
KCOU 020204Z 0202/0224 32012KT P6SM BKN030
     FM020400 32007KT P6SM BKN020
     FM020800 33007KT 5SM BR OVC009
     FM021500 33007KT P6SM OVC015
     FM022100 33008KT P6SM BKN025=



000
FTUS43 KLSX 020105 AAA
TAFSUS
TAF AMD
KSUS 020105Z 0201/0224 29006KT P6SM SCT050
     FM020600 31007KT P6SM BKN025
     FM020900 32007KT 6SM BR BKN009 OVC015
     FM021600 33007KT P6SM VCSH BKN015 OVC040=



000
FTUS43 KLSX 020103 AAA
TAFUIN
TAF AMD
KUIN 020103Z 0201/0224 32010KT P6SM BKN006 OVC015
     FM020600 33008KT 5SM BR OVC006
     FM021500 36008KT 6SM BR SCT008 OVC015
     FM022100 36007KT P6SM BKN025=



000
FTUS43 KLSX 020103 AAA
TAFUIN
TAF AMD
KUIN 020103Z 0201/0224 32010KT P6SM BKN006 OVC015
     FM020600 33008KT 5SM BR OVC006
     FM021500 36008KT 6SM BR SCT008 OVC015
     FM022100 36007KT P6SM BKN025=



000
FTUS43 KLSX 012340
TAFSUS
TAF
KSUS 012340Z 0200/0224 29013G19KT P6SM SCT060
     FM020200 30006KT P6SM SCT050
     FM020600 31007KT P6SM BKN025
     FM020900 32007KT 6SM BR BKN009 OVC015
     FM021600 33007KT P6SM VCSH BKN015 OVC040=



000
FTUS43 KLSX 012340
TAFCOU
TAF
KCOU 012340Z 0200/0224 30012KT P6SM BKN040
     FM020300 32007KT P6SM BKN030
     FM020800 33007KT 5SM BR OVC009
     FM021500 33007KT P6SM OVC015
     FM022100 33008KT P6SM BKN025=



000
FTUS43 KLSX 012340
TAFSTL
TAF
KSTL 012340Z 0200/0306 29014G20KT P6SM SCT060
     FM020200 30007KT P6SM SCT050
     FM020600 31008KT P6SM BKN025
     FM020900 32008KT 6SM BR BKN009 OVC015
     FM021600 33007KT P6SM VCSH BKN015 OVC040
     FM030000 33006KT P6SM BKN030=



000
FTUS43 KLSX 012340
TAFUIN
TAF
KUIN 012340Z 0200/0224 32008KT P6SM SCT013 OVC025
      TEMPO 0200/0203 BKN013
     FM020300 32008KT P6SM BKN008 OVC015
     FM020600 33008KT 5SM BR OVC006
     FM021500 36008KT 6SM BR SCT008 OVC015
     FM022100 36007KT P6SM BKN025=



000
FTUS43 KLSX 012059 AAA
TAFUIN
TAF AMD
KUIN 012059Z 0121/0218 35006KT P6SM VCSH BKN007 OVC012
     FM020200 35008KT 6SM BR BKN006 OVC012
     FM021500 35007KT 6SM BR SCT009 OVC020=



000
FTUS43 KLSX 012059 AAA
TAFUIN
TAF AMD
KUIN 012059Z 0121/0218 35006KT P6SM VCSH BKN007 OVC012
     FM020200 35008KT 6SM BR BKN006 OVC012
     FM021500 35007KT 6SM BR SCT009 OVC020=



000
FTUS43 KLSX 011943 AAA
TAFSUS
TAF AMD
KSUS 011943Z 0120/0218 26012KT P6SM SCT020 BKN040
     FM020100 32008KT P6SM SCT020 BKN120
     FM020800 33007KT 6SM BR BKN009 OVC015
     FM021600 35007KT P6SM VCSH BKN015 OVC040=



000
FTUS43 KLSX 011943 AAA
TAFSTL
TAF AMD
KSTL 011943Z 0120/0224 26012KT P6SM SCT025 BKN040
     FM020100 32008KT P6SM SCT020 BKN120
     FM020800 33007KT 6SM BR BKN009 OVC015
     FM021600 35007KT P6SM VCSH BKN015 OVC040=



000
FTUS43 KLSX 011740
TAFSUS
TAF
KSUS 011740Z 0118/0218 30007KT P6SM SCT009 OVC015
     FM012200 26012KT P6SM SCT020 BKN040
     FM020100 32008KT P6SM SCT050 BKN120
     FM020800 33007KT 6SM BR BKN009 OVC015
     FM021600 35007KT P6SM VCSH BKN015 OVC040=



000
FTUS43 KLSX 011740
TAFSTL
TAF
KSTL 011740Z 0118/0224 29007KT P6SM SCT009 OVC015
     FM012200 26012KT P6SM SCT020 BKN040
     FM020100 32008KT P6SM SCT050 BKN120
     FM020800 33007KT 6SM BR BKN009 OVC015
     FM021600 35007KT P6SM VCSH BKN015 OVC040=



000
FTUS43 KLSX 011740
TAFCOU
TAF
KCOU 011740Z 0118/0218 27011KT P6SM BKN040
     FM020100 32007KT P6SM BKN030
     FM020800 35007KT P6SM BKN010=



000
FTUS43 KLSX 011740
TAFUIN
TAF
KUIN 011740Z 0118/0218 34007KT 6SM BR OVC007
     FM012000 02008KT P6SM VCSH SCT009 OVC012
     FM020200 35008KT 6SM BR BKN006 OVC012
     FM021500 35007KT 6SM BR SCT009 OVC020=



000
FTUS43 KLSX 011459 AAB
TAFCOU
TAF AMD
KCOU 011459Z 0115/0212 27008KT P6SM BKN020
     FM011800 27011KT P6SM BKN040
     FM020100 32007KT P6SM BKN030
     FM020800 35007KT P6SM BKN010=



000
FTUS43 KLSX 011455 AAC
TAFSUS
TAF AMD
KSUS 011455Z 0115/0212 27006KT P6SM BKN009 OVC050
     FM011800 25012KT P6SM VCSH BKN015 BKN050
     FM020100 32008KT P6SM SCT050 BKN120
     FM020800 32007KT P6SM BKN015=



000
FTUS43 KLSX 011447 AAB
TAFSTL
TAF AMD
KSTL 011447Z 0115/0218 30007KT P6SM BKN009 OVC050
     FM011800 25012KT P6SM VCSH BKN015 BKN050
     FM020100 32008KT P6SM SCT050 BKN120
     FM020800 32007KT P6SM BKN015=



000
FTUS43 KLSX 011418 AAB
TAFSUS
TAF AMD
KSUS 011418Z 0114/0212 00000KT P6SM SCT006 BKN250
      TEMPO 0114/0115 BKN007
     FM011500 27007KT P6SM SCT015 BKN250
     FM011800 25012KT P6SM VCSH BKN040
     FM020100 32008KT P6SM SCT050 BKN120
     FM020800 32007KT P6SM BKN015=



000
FTUS43 KLSX 011417 AAA
TAFSTL
TAF AMD
KSTL 011417Z 0114/0218 VRB04KT P6SM SCT050 BKN250
      TEMPO 0114/0115 OVC009
     FM011500 27007KT P6SM SCT015 BKN250
     FM011800 25012KT P6SM VCSH BKN040
     FM020100 32008KT P6SM SCT050 BKN120
     FM020800 32007KT P6SM BKN015=



000
FTUS43 KLSX 011201 AAA
TAFCOU
TAF AMD
KCOU 011201Z 0112/0212 VRB04KT 1/4SM FG VV002
     FM011300 VRB04KT 5SM BR BKN003 OVC050
      TEMPO 0113/0114 1SM BR OVC002
     FM011500 27008KT P6SM BKN020
     FM011800 27011KT P6SM BKN040
     FM020100 32007KT P6SM BKN030
     FM020800 35007KT P6SM BKN010=



000
FTUS43 KLSX 011201 AAA
TAFCOU
TAF AMD
KCOU 011201Z 0112/0212 VRB04KT 1/4SM FG VV002
     FM011300 VRB04KT 5SM BR BKN003 OVC050
      TEMPO 0113/0114 1SM BR OVC002
     FM011500 27008KT P6SM BKN020
     FM011800 27011KT P6SM BKN040
     FM020100 32007KT P6SM BKN030
     FM020800 35007KT P6SM BKN010=



000
FTUS43 KLSX 011200 AAA
TAFSUS
TAF AMD
KSUS 011200Z 0112/0212 00000KT P6SM SCT003 BKN250
      TEMPO 0112/0113 3SM BR BKN003
     FM011500 27007KT P6SM SCT015 BKN250
     FM011800 25012KT P6SM VCSH BKN040
     FM020100 32008KT P6SM SCT050 BKN120
     FM020800 32007KT P6SM BKN015=



000
FTUS43 KLSX 011200 AAA
TAFSUS
TAF AMD
KSUS 011200Z 0112/0212 00000KT P6SM SCT003 BKN250
      TEMPO 0112/0113 3SM BR BKN003
     FM011500 27007KT P6SM SCT015 BKN250
     FM011800 25012KT P6SM VCSH BKN040
     FM020100 32008KT P6SM SCT050 BKN120
     FM020800 32007KT P6SM BKN015=



000
FTUS43 KLSX 011159 CCA
TAFCOU
TAF COR
KCOU 011159Z 0112/0212 VRB04KT 1/4SM FG VV002
     FM011300 VRB04KT 5SM BR BKN003 OVC050
      TEMPO 0113/0114 1SM BR OVC002
     FM011500 27008KT P6SM BKN020
     FM011800 27011KT P6SM BKN040
     FM020100 32007KT P6SM BKN030
     FM020800 35007KT P6SM BKN010=



000
FTUS43 KLSX 011159 CCA
TAFCOU
TAF COR
KCOU 011159Z 0112/0212 VRB04KT 1/4SM FG VV002
     FM011300 VRB04KT 5SM BR BKN003 OVC050
      TEMPO 0113/0114 1SM BR OVC002
     FM011500 27008KT P6SM BKN020
     FM011800 27011KT P6SM BKN040
     FM020100 32007KT P6SM BKN030
     FM020800 35007KT P6SM BKN010=



000
FTUS43 KLSX 011121
TAFUIN
TAF
KUIN 011121Z 0112/0212 02008KT 2SM BR OVC002
     FM011400 03006KT 5SM BR BKN005
     FM011700 32012KT P6SM VCSH BKN015
     FM020100 33008KT P6SM BKN010=



000
FTUS43 KLSX 011121
TAFCOU
TAF
KCOU 011121Z 0112/0212 VRB04KT P6SM BKN003 OVC050
      TEMPO 0112/0113 4SM BR
     FM011500 27008KT P6SM BKN020
     FM011800 27011KT P6SM BKN040
     FM020100 32007KT P6SM BKN030
     FM020800 35007KT P6SM BKN010=



000
FTUS43 KLSX 011121
TAFSTL
TAF
KSTL 011121Z 0112/0218 VRB04KT P6SM SCT050 BKN250
      TEMPO 0112/0113 4SM BR
     FM011500 27007KT P6SM SCT015 BKN250
     FM011800 25012KT P6SM VCSH BKN040
     FM020100 32008KT P6SM SCT050 BKN120
     FM020800 32007KT P6SM BKN015=



000
FTUS43 KLSX 011121
TAFSUS
TAF
KSUS 011121Z 0112/0212 00000KT P6SM SCT050 BKN250
      TEMPO 0112/0113 3SM BR
     FM011500 27007KT P6SM SCT015 BKN250
     FM011800 25012KT P6SM VCSH BKN040
     FM020100 32008KT P6SM SCT050 BKN120
     FM020800 32007KT P6SM BKN015=



000
FTUS43 KLSX 010938 AAA
TAFUIN
TAF AMD
KUIN 010938Z 0110/0206 02008KT 1SM BR VV002
     FM011500 03006KT 5SM BR BKN005
     FM011800 32009KT P6SM VCSH BKN015
     FM020000 33008KT P6SM BKN010=



000
FTUS43 KLSX 010937 AAA
TAFSUS
TAF AMD
KSUS 010937Z 0110/0206 00000KT 4SM BR SCT050 BKN250
      TEMPO 0110/0113 1SM BR
     FM011500 29007KT P6SM BKN030
     FM011800 29010KT P6SM BKN040
     FM020100 32007KT P6SM SCT050 BKN120=



000
FTUS43 KLSX 010854 AAA
TAFSTL
TAF AMD
KSTL 010854Z 0109/0212 VRB04KT P6SM SCT050 BKN250
      TEMPO 0109/0113 4SM BR
     FM011500 29007KT P6SM BKN030
     FM011800 29010KT P6SM BKN040
     FM020100 32008KT P6SM SCT050 BKN120
     FM020900 32007KT P6SM BKN015=



000
FTUS43 KLSX 010854 AAA
TAFSTL
TAF AMD
KSTL 010854Z 0109/0212 VRB04KT P6SM SCT050 BKN250
      TEMPO 0109/0113 4SM BR
     FM011500 29007KT P6SM BKN030
     FM011800 29010KT P6SM BKN040
     FM020100 32008KT P6SM SCT050 BKN120
     FM020900 32007KT P6SM BKN015=



    US Dept of Commerce
    National Oceanic and Atmospheric Administration
    National Weather Service
    1325 East West Highway
    Silver Spring, MD 20910
    Page Author: NWS Internet Services Team
Disclaimer
Information Quality
Credits
Glossary
Privacy Policy
Freedom of Information Act (FOIA)
About Us
Career Opportunities